sensor_id;sensor_type;location;lat;lon;timestamp;P1;durP1;ratioP1;P2;durP2;ratioP2
47113;SDS011;32867;51.556;6.832;2023-04-29T00:00:49;52.15;;;33.92;;
47113;SDS011;32867;51.556;6.832;2023-04-29T00:05:50;57.35;;;34.53;;
47113;SDS011;32867;51.556;6.832;2023-04-29T00:10:50;59.78;;;35.08;;
47113;SDS011;32867;51.556;6.832;2023-04-29T00:15:51;63.05;;;37.28;;
47113;SDS011;32867;51.556;6.832;2023-04-29T00:20:52;64.93;;;37.25;;
47113;SDS011;32867;51.556;6.832;2023-04-29T00:25:52;68.25;;;38.70;;
47113;SDS011;32867;51.556;6.832;2023-04-29T00:30:53;92.30;;;48.05;;
47113;SDS011;32867;51.556;6.832;2023-04-29T00:35:55;100.85;;;52.50;;
47113;SDS011;32867;51.556;6.832;2023-04-29T00:40:55;116.15;;;59.08;;
47113;SDS011;32867;51.556;6.832;2023-04-29T00:45:56;109.85;;;51.08;;
47113;SDS011;32867;51.556;6.832;2023-04-29T00:50:57;113.15;;;52.97;;
47113;SDS011;32867;51.556;6.832;2023-04-29T00:55:58;109.90;;;50.65;;
47113;SDS011;32867;51.556;6.832;2023-04-29T01:01:01;88.30;;;47.38;;
47113;SDS011;32867;51.556;6.832;2023-04-29T01:06:08;130.02;;;57.92;;
47113;SDS011;32867;51.556;6.832;2023-04-29T01:11:20;129.20;;;56.47;;
47113;SDS011;32867;51.556;6.832;2023-04-29T01:16:33;154.13;;;63.92;;
47113;SDS011;32867;51.556;6.832;2023-04-29T01:21:46;117.90;;;51.47;;
47113;SDS011;32867;51.556;6.832;2023-04-29T01:26:54;113.43;;;49.13;;
47113;SDS011;32867;51.556;6.832;2023-04-29T01:32:36;110.10;;;48.80;;
47113;SDS011;32867;51.556;6.832;2023-04-29T01:38:08;99.15;;;46.70;;
47113;SDS011;32867;51.556;6.832;2023-04-29T01:43:21;84.40;;;41.83;;
47113;SDS011;32867;51.556;6.832;2023-04-29T01:48:24;83.63;;;41.15;;
47113;SDS011;32867;51.556;6.832;2023-04-29T01:53:26;86.97;;;43.75;;
47113;SDS011;32867;51.556;6.832;2023-04-29T01:58:27;80.78;;;42.47;;
47113;SDS011;32867;51.556;6.832;2023-04-29T02:03:49;75.35;;;40.10;;
47113;SDS011;32867;51.556;6.832;2023-04-29T02:08:50;73.00;;;38.75;;
47113;SDS011;32867;51.556;6.832;2023-04-29T02:13:51;69.15;;;38.90;;
47113;SDS011;32867;51.556;6.832;2023-04-29T02:18:54;63.55;;;34.42;;
47113;SDS011;32867;51.556;6.832;2023-04-29T02:23:55;51.00;;;28.90;;
47113;SDS011;32867;51.556;6.832;2023-04-29T02:28:58;49.90;;;28.58;;
47113;SDS011;32867;51.556;6.832;2023-04-29T02:34:00;56.28;;;31.17;;
47113;SDS011;32867;51.556;6.832;2023-04-29T02:39:01;49.08;;;26.17;;
47113;SDS011;32867;51.556;6.832;2023-04-29T02:44:02;66.75;;;34.85;;
47113;SDS011;32867;51.556;6.832;2023-04-29T02:49:03;62.75;;;32.80;;
47113;SDS011;32867;51.556;6.832;2023-04-29T02:54:04;55.80;;;30.98;;
47113;SDS011;32867;51.556;6.832;2023-04-29T02:59:05;64.13;;;32.65;;
47113;SDS011;32867;51.556;6.832;2023-04-29T03:04:06;51.95;;;30.20;;
47113;SDS011;32867;51.556;6.832;2023-04-29T03:09:07;64.10;;;32.42;;
47113;SDS011;32867;51.556;6.832;2023-04-29T03:14:08;59.05;;;31.48;;
47113;SDS011;32867;51.556;6.832;2023-04-29T03:19:09;53.70;;;29.02;;
47113;SDS011;32867;51.556;6.832;2023-04-29T03:24:10;55.47;;;31.13;;
47113;SDS011;32867;51.556;6.832;2023-04-29T03:29:10;41.75;;;24.77;;
47113;SDS011;32867;51.556;6.832;2023-04-29T03:34:11;44.78;;;25.98;;
47113;SDS011;32867;51.556;6.832;2023-04-29T03:39:17;66.60;;;34.75;;
47113;SDS011;32867;51.556;6.832;2023-04-29T03:44:18;37.63;;;22.33;;
47113;SDS011;32867;51.556;6.832;2023-04-29T03:49:19;41.13;;;25.27;;
47113;SDS011;32867;51.556;6.832;2023-04-29T03:54:19;55.42;;;30.80;;
47113;SDS011;32867;51.556;6.832;2023-04-29T03:59:22;48.08;;;28.30;;
47113;SDS011;32867;51.556;6.832;2023-04-29T04:04:24;47.90;;;26.73;;
47113;SDS011;32867;51.556;6.832;2023-04-29T04:09:25;40.92;;;24.88;;
47113;SDS011;32867;51.556;6.832;2023-04-29T04:14:26;42.10;;;26.38;;
47113;SDS011;32867;51.556;6.832;2023-04-29T04:19:29;36.80;;;22.77;;
47113;SDS011;32867;51.556;6.832;2023-04-29T04:24:31;45.38;;;27.17;;
47113;SDS011;32867;51.556;6.832;2023-04-29T04:29:31;41.33;;;25.13;;
47113;SDS011;32867;51.556;6.832;2023-04-29T04:34:36;41.33;;;25.88;;
47113;SDS011;32867;51.556;6.832;2023-04-29T04:39:39;39.25;;;25.10;;
47113;SDS011;32867;51.556;6.832;2023-04-29T04:44:40;32.10;;;20.02;;
47113;SDS011;32867;51.556;6.832;2023-04-29T04:49:44;28.80;;;18.75;;
47113;SDS011;32867;51.556;6.832;2023-04-29T04:54:46;39.28;;;25.58;;
47113;SDS011;32867;51.556;6.832;2023-04-29T04:59:52;26.67;;;18.50;;
47113;SDS011;32867;51.556;6.832;2023-04-29T05:04:52;29.65;;;20.40;;
47113;SDS011;32867;51.556;6.832;2023-04-29T05:09:58;26.48;;;18.58;;
47113;SDS011;32867;51.556;6.832;2023-04-29T05:15:00;27.70;;;19.05;;
47113;SDS011;32867;51.556;6.832;2023-04-29T05:20:03;35.00;;;22.83;;
47113;SDS011;32867;51.556;6.832;2023-04-29T05:25:07;39.38;;;26.73;;
47113;SDS011;32867;51.556;6.832;2023-04-29T05:30:09;43.03;;;26.48;;
47113;SDS011;32867;51.556;6.832;2023-04-29T05:35:11;30.02;;;21.05;;
47113;SDS011;32867;51.556;6.832;2023-04-29T05:40:12;39.28;;;25.35;;
47113;SDS011;32867;51.556;6.832;2023-04-29T05:45:13;34.92;;;23.35;;
47113;SDS011;32867;51.556;6.832;2023-04-29T05:50:14;35.05;;;24.77;;
47113;SDS011;32867;51.556;6.832;2023-04-29T05:55:15;40.85;;;25.75;;
47113;SDS011;32867;51.556;6.832;2023-04-29T06:00:16;37.03;;;24.48;;
47113;SDS011;32867;51.556;6.832;2023-04-29T06:05:17;18.08;;;13.30;;
47113;SDS011;32867;51.556;6.832;2023-04-29T06:10:31;34.25;;;22.77;;
47113;SDS011;32867;51.556;6.832;2023-04-29T06:15:32;41.65;;;25.90;;
47113;SDS011;32867;51.556;6.832;2023-04-29T06:20:33;37.15;;;24.77;;
47113;SDS011;32867;51.556;6.832;2023-04-29T06:25:34;38.35;;;27.67;;
47113;SDS011;32867;51.556;6.832;2023-04-29T06:30:38;35.38;;;23.42;;
47113;SDS011;32867;51.556;6.832;2023-04-29T06:35:39;31.48;;;23.00;;
47113;SDS011;32867;51.556;6.832;2023-04-29T06:41:15;35.70;;;24.05;;
47113;SDS011;32867;51.556;6.832;2023-04-29T06:46:28;37.17;;;24.17;;
47113;SDS011;32867;51.556;6.832;2023-04-29T06:51:49;28.58;;;20.00;;
47113;SDS011;32867;51.556;6.832;2023-04-29T06:56:50;32.80;;;21.92;;
47113;SDS011;32867;51.556;6.832;2023-04-29T07:01:51;31.80;;;22.65;;
47113;SDS011;32867;51.556;6.832;2023-04-29T07:06:53;33.97;;;21.50;;
47113;SDS011;32867;51.556;6.832;2023-04-29T07:11:54;26.65;;;18.95;;
47113;SDS011;32867;51.556;6.832;2023-04-29T07:16:55;25.85;;;18.33;;
47113;SDS011;32867;51.556;6.832;2023-04-29T07:21:56;24.33;;;17.50;;
47113;SDS011;32867;51.556;6.832;2023-04-29T07:26:57;32.80;;;21.58;;
47113;SDS011;32867;51.556;6.832;2023-04-29T07:31:58;26.30;;;18.85;;
47113;SDS011;32867;51.556;6.832;2023-04-29T07:37:00;33.13;;;22.17;;
47113;SDS011;32867;51.556;6.832;2023-04-29T07:42:01;27.30;;;18.63;;
47113;SDS011;32867;51.556;6.832;2023-04-29T07:47:04;38.08;;;22.65;;
47113;SDS011;32867;51.556;6.832;2023-04-29T07:52:06;37.63;;;26.02;;
47113;SDS011;32867;51.556;6.832;2023-04-29T07:57:08;41.38;;;25.35;;
47113;SDS011;32867;51.556;6.832;2023-04-29T08:02:10;32.20;;;21.55;;
47113;SDS011;32867;51.556;6.832;2023-04-29T08:07:11;31.17;;;19.90;;
47113;SDS011;32867;51.556;6.832;2023-04-29T08:12:12;38.35;;;24.40;;
47113;SDS011;32867;51.556;6.832;2023-04-29T08:17:14;28.80;;;19.00;;
47113;SDS011;32867;51.556;6.832;2023-04-29T08:22:14;31.48;;;21.17;;
47113;SDS011;32867;51.556;6.832;2023-04-29T08:27:15;29.40;;;20.38;;
47113;SDS011;32867;51.556;6.832;2023-04-29T08:32:16;29.98;;;20.17;;
47113;SDS011;32867;51.556;6.832;2023-04-29T08:37:17;25.35;;;16.77;;
47113;SDS011;32867;51.556;6.832;2023-04-29T08:42:20;27.77;;;18.73;;
47113;SDS011;32867;51.556;6.832;2023-04-29T08:47:37;33.25;;;19.95;;
47113;SDS011;32867;51.556;6.832;2023-04-29T08:52:38;23.70;;;16.23;;
47113;SDS011;32867;51.556;6.832;2023-04-29T08:57:39;24.90;;;18.85;;
47113;SDS011;32867;51.556;6.832;2023-04-29T09:02:44;23.02;;;16.45;;
47113;SDS011;32867;51.556;6.832;2023-04-29T09:07:55;23.83;;;15.30;;
47113;SDS011;32867;51.556;6.832;2023-04-29T09:12:58;26.98;;;18.92;;
47113;SDS011;32867;51.556;6.832;2023-04-29T09:17:59;31.17;;;21.80;;
47113;SDS011;32867;51.556;6.832;2023-04-29T09:23:01;29.48;;;18.60;;
47113;SDS011;32867;51.556;6.832;2023-04-29T09:28:15;29.40;;;21.98;;
47113;SDS011;32867;51.556;6.832;2023-04-29T09:33:16;31.02;;;20.00;;
47113;SDS011;32867;51.556;6.832;2023-04-29T09:38:17;28.80;;;18.83;;
47113;SDS011;32867;51.556;6.832;2023-04-29T09:43:18;23.75;;;16.17;;
47113;SDS011;32867;51.556;6.832;2023-04-29T09:48:20;25.88;;;16.17;;
47113;SDS011;32867;51.556;6.832;2023-04-29T09:53:28;24.75;;;18.42;;
47113;SDS011;32867;51.556;6.832;2023-04-29T09:58:31;20.00;;;15.57;;
47113;SDS011;32867;51.556;6.832;2023-04-29T10:03:36;23.83;;;16.65;;
47113;SDS011;32867;51.556;6.832;2023-04-29T10:08:37;22.40;;;15.57;;
47113;SDS011;32867;51.556;6.832;2023-04-29T10:13:41;22.52;;;15.52;;
47113;SDS011;32867;51.556;6.832;2023-04-29T10:18:45;23.40;;;15.98;;
47113;SDS011;32867;51.556;6.832;2023-04-29T10:23:51;21.40;;;15.50;;
47113;SDS011;32867;51.556;6.832;2023-04-29T10:28:57;20.80;;;15.20;;
47113;SDS011;32867;51.556;6.832;2023-04-29T10:33:59;18.58;;;15.30;;
47113;SDS011;32867;51.556;6.832;2023-04-29T10:39:02;25.30;;;19.23;;
47113;SDS011;32867;51.556;6.832;2023-04-29T10:44:05;17.10;;;13.02;;
47113;SDS011;32867;51.556;6.832;2023-04-29T10:49:06;16.25;;;12.75;;
47113;SDS011;32867;51.556;6.832;2023-04-29T10:54:07;15.73;;;12.45;;
47113;SDS011;32867;51.556;6.832;2023-04-29T10:59:12;20.80;;;14.98;;
47113;SDS011;32867;51.556;6.832;2023-04-29T11:04:15;15.35;;;10.60;;
47113;SDS011;32867;51.556;6.832;2023-04-29T11:14:23;15.25;;;12.18;;
47113;SDS011;32867;51.556;6.832;2023-04-29T11:19:39;21.98;;;16.42;;
47113;SDS011;32867;51.556;6.832;2023-04-29T11:24:56;14.80;;;10.10;;
47113;SDS011;32867;51.556;6.832;2023-04-29T11:30:00;17.40;;;11.05;;
47113;SDS011;32867;51.556;6.832;2023-04-29T11:40:08;14.93;;;12.40;;
47113;SDS011;32867;51.556;6.832;2023-04-29T11:45:10;17.17;;;13.27;;
47113;SDS011;32867;51.556;6.832;2023-04-29T11:50:11;16.95;;;13.05;;
47113;SDS011;32867;51.556;6.832;2023-04-29T11:55:15;12.80;;;9.00;;
47113;SDS011;32867;51.556;6.832;2023-04-29T12:00:17;11.95;;;8.20;;
47113;SDS011;32867;51.556;6.832;2023-04-29T12:05:18;10.48;;;8.48;;
47113;SDS011;32867;51.556;6.832;2023-04-29T12:10:18;17.63;;;11.88;;
47113;SDS011;32867;51.556;6.832;2023-04-29T12:15:20;13.07;;;10.43;;
47113;SDS011;32867;51.556;6.832;2023-04-29T12:20:21;15.60;;;12.35;;
47113;SDS011;32867;51.556;6.832;2023-04-29T12:25:25;11.05;;;8.65;;
47113;SDS011;32867;51.556;6.832;2023-04-29T12:30:27;13.20;;;10.77;;
47113;SDS011;32867;51.556;6.832;2023-04-29T12:35:27;13.88;;;11.07;;
47113;SDS011;32867;51.556;6.832;2023-04-29T12:40:28;12.80;;;10.10;;
47113;SDS011;32867;51.556;6.832;2023-04-29T12:45:29;9.75;;;7.40;;
47113;SDS011;32867;51.556;6.832;2023-04-29T12:50:35;12.25;;;7.60;;
47113;SDS011;32867;51.556;6.832;2023-04-29T12:55:37;16.25;;;9.65;;
47113;SDS011;32867;51.556;6.832;2023-04-29T13:00:38;12.95;;;9.15;;
47113;SDS011;32867;51.556;6.832;2023-04-29T13:05:38;10.43;;;7.07;;
47113;SDS011;32867;51.556;6.832;2023-04-29T13:10:40;9.63;;;6.35;;
47113;SDS011;32867;51.556;6.832;2023-04-29T13:15:40;12.80;;;9.35;;
47113;SDS011;32867;51.556;6.832;2023-04-29T13:20:41;12.30;;;9.07;;
47113;SDS011;32867;51.556;6.832;2023-04-29T13:25:42;9.25;;;6.20;;
47113;SDS011;32867;51.556;6.832;2023-04-29T13:30:42;11.52;;;8.15;;
47113;SDS011;32867;51.556;6.832;2023-04-29T13:35:43;14.95;;;10.50;;
47113;SDS011;32867;51.556;6.832;2023-04-29T13:40:44;12.02;;;9.27;;
47113;SDS011;32867;51.556;6.832;2023-04-29T13:45:45;12.70;;;8.40;;
47113;SDS011;32867;51.556;6.832;2023-04-29T13:50:46;9.57;;;6.22;;
47113;SDS011;32867;51.556;6.832;2023-04-29T13:55:47;13.82;;;8.40;;
47113;SDS011;32867;51.556;6.832;2023-04-29T14:00:47;9.93;;;7.90;;
47113;SDS011;32867;51.556;6.832;2023-04-29T14:05:48;12.10;;;8.18;;
47113;SDS011;32867;51.556;6.832;2023-04-29T14:10:49;8.05;;;5.63;;
47113;SDS011;32867;51.556;6.832;2023-04-29T14:15:49;11.27;;;7.45;;
47113;SDS011;32867;51.556;6.832;2023-04-29T14:20:50;11.35;;;8.57;;
47113;SDS011;32867;51.556;6.832;2023-04-29T14:25:53;13.52;;;9.48;;
47113;SDS011;32867;51.556;6.832;2023-04-29T14:30:53;7.88;;;6.20;;
47113;SDS011;32867;51.556;6.832;2023-04-29T14:35:55;13.02;;;8.73;;
47113;SDS011;32867;51.556;6.832;2023-04-29T14:40:57;9.57;;;6.18;;
47113;SDS011;32867;51.556;6.832;2023-04-29T14:45:57;12.63;;;8.20;;
47113;SDS011;32867;51.556;6.832;2023-04-29T14:50:58;14.73;;;7.90;;
47113;SDS011;32867;51.556;6.832;2023-04-29T14:55:59;8.30;;;5.78;;
47113;SDS011;32867;51.556;6.832;2023-04-29T15:01:00;7.93;;;5.65;;
47113;SDS011;32867;51.556;6.832;2023-04-29T15:06:00;7.10;;;5.15;;
47113;SDS011;32867;51.556;6.832;2023-04-29T15:11:02;10.00;;;6.88;;
47113;SDS011;32867;51.556;6.832;2023-04-29T15:16:03;6.43;;;5.10;;
47113;SDS011;32867;51.556;6.832;2023-04-29T15:21:06;10.50;;;7.00;;
47113;SDS011;32867;51.556;6.832;2023-04-29T15:26:06;8.68;;;6.60;;
47113;SDS011;32867;51.556;6.832;2023-04-29T15:31:07;7.15;;;5.15;;
47113;SDS011;32867;51.556;6.832;2023-04-29T15:36:08;5.72;;;4.25;;
47113;SDS011;32867;51.556;6.832;2023-04-29T15:41:08;7.45;;;4.47;;
47113;SDS011;32867;51.556;6.832;2023-04-29T15:46:09;6.05;;;4.28;;
47113;SDS011;32867;51.556;6.832;2023-04-29T15:51:10;9.52;;;6.15;;
47113;SDS011;32867;51.556;6.832;2023-04-29T15:56:13;9.30;;;6.30;;
47113;SDS011;32867;51.556;6.832;2023-04-29T16:01:14;7.28;;;4.90;;
47113;SDS011;32867;51.556;6.832;2023-04-29T16:06:15;6.55;;;5.05;;
47113;SDS011;32867;51.556;6.832;2023-04-29T16:11:16;10.50;;;6.60;;
47113;SDS011;32867;51.556;6.832;2023-04-29T16:16:16;10.45;;;6.80;;
47113;SDS011;32867;51.556;6.832;2023-04-29T16:21:17;9.57;;;6.80;;
47113;SDS011;32867;51.556;6.832;2023-04-29T16:26:18;9.48;;;6.57;;
47113;SDS011;32867;51.556;6.832;2023-04-29T16:31:19;9.90;;;6.30;;
47113;SDS011;32867;51.556;6.832;2023-04-29T16:36:19;7.82;;;5.88;;
47113;SDS011;32867;51.556;6.832;2023-04-29T16:41:20;6.70;;;4.05;;
47113;SDS011;32867;51.556;6.832;2023-04-29T16:46:25;38.08;;;20.92;;
47113;SDS011;32867;51.556;6.832;2023-04-29T16:51:25;8.90;;;5.28;;
47113;SDS011;32867;51.556;6.832;2023-04-29T16:56:28;44.80;;;26.83;;
47113;SDS011;32867;51.556;6.832;2023-04-29T17:01:28;13.98;;;8.68;;
47113;SDS011;32867;51.556;6.832;2023-04-29T17:06:29;8.82;;;4.88;;
47113;SDS011;32867;51.556;6.832;2023-04-29T17:11:31;6.50;;;4.38;;
47113;SDS011;32867;51.556;6.832;2023-04-29T17:16:32;8.40;;;5.90;;
47113;SDS011;32867;51.556;6.832;2023-04-29T17:21:33;7.20;;;5.90;;
47113;SDS011;32867;51.556;6.832;2023-04-29T17:26:33;11.77;;;6.28;;
47113;SDS011;32867;51.556;6.832;2023-04-29T17:31:34;9.43;;;5.32;;
47113;SDS011;32867;51.556;6.832;2023-04-29T17:36:44;10.07;;;5.28;;
47113;SDS011;32867;51.556;6.832;2023-04-29T17:41:46;7.38;;;5.13;;
47113;SDS011;32867;51.556;6.832;2023-04-29T17:46:47;13.20;;;9.20;;
47113;SDS011;32867;51.556;6.832;2023-04-29T17:51:48;12.43;;;8.45;;
47113;SDS011;32867;51.556;6.832;2023-04-29T17:56:48;12.40;;;8.52;;
47113;SDS011;32867;51.556;6.832;2023-04-29T18:01:49;9.98;;;5.95;;
47113;SDS011;32867;51.556;6.832;2023-04-29T18:06:49;30.70;;;20.50;;
47113;SDS011;32867;51.556;6.832;2023-04-29T18:11:50;9.38;;;6.22;;
47113;SDS011;32867;51.556;6.832;2023-04-29T18:16:51;14.43;;;9.55;;
47113;SDS011;32867;51.556;6.832;2023-04-29T18:21:52;13.95;;;8.30;;
47113;SDS011;32867;51.556;6.832;2023-04-29T18:26:57;9.68;;;7.35;;
47113;SDS011;32867;51.556;6.832;2023-04-29T18:31:58;15.13;;;10.93;;
47113;SDS011;32867;51.556;6.832;2023-04-29T18:36:58;12.02;;;7.15;;
47113;SDS011;32867;51.556;6.832;2023-04-29T18:42:00;6.72;;;4.47;;
47113;SDS011;32867;51.556;6.832;2023-04-29T18:47:01;4.95;;;3.97;;
47113;SDS011;32867;51.556;6.832;2023-04-29T18:52:02;5.90;;;4.03;;
47113;SDS011;32867;51.556;6.832;2023-04-29T18:57:03;6.93;;;4.07;;
47113;SDS011;32867;51.556;6.832;2023-04-29T19:02:06;6.13;;;4.00;;
47113;SDS011;32867;51.556;6.832;2023-04-29T19:07:07;5.47;;;3.30;;
47113;SDS011;32867;51.556;6.832;2023-04-29T19:12:07;5.65;;;3.58;;
47113;SDS011;32867;51.556;6.832;2023-04-29T19:17:08;4.82;;;3.10;;
47113;SDS011;32867;51.556;6.832;2023-04-29T19:22:09;4.65;;;3.58;;
47113;SDS011;32867;51.556;6.832;2023-04-29T19:27:10;7.93;;;3.40;;
47113;SDS011;32867;51.556;6.832;2023-04-29T19:32:11;5.18;;;3.45;;
47113;SDS011;32867;51.556;6.832;2023-04-29T19:37:12;5.13;;;3.28;;
47113;SDS011;32867;51.556;6.832;2023-04-29T19:42:13;5.55;;;3.25;;
47113;SDS011;32867;51.556;6.832;2023-04-29T19:47:13;4.75;;;2.78;;
47113;SDS011;32867;51.556;6.832;2023-04-29T19:52:14;4.70;;;3.20;;
47113;SDS011;32867;51.556;6.832;2023-04-29T19:57:15;4.60;;;3.42;;
47113;SDS011;32867;51.556;6.832;2023-04-29T20:02:15;7.35;;;3.50;;
47113;SDS011;32867;51.556;6.832;2023-04-29T20:07:16;4.95;;;3.22;;
47113;SDS011;32867;51.556;6.832;2023-04-29T20:12:17;5.78;;;3.60;;
47113;SDS011;32867;51.556;6.832;2023-04-29T20:17:17;5.15;;;3.63;;
47113;SDS011;32867;51.556;6.832;2023-04-29T20:22:18;6.38;;;3.33;;
47113;SDS011;32867;51.556;6.832;2023-04-29T20:27:19;5.13;;;3.38;;
47113;SDS011;32867;51.556;6.832;2023-04-29T20:32:20;6.47;;;3.58;;
47113;SDS011;32867;51.556;6.832;2023-04-29T20:37:21;5.15;;;3.33;;
47113;SDS011;32867;51.556;6.832;2023-04-29T20:42:22;6.13;;;3.30;;
47113;SDS011;32867;51.556;6.832;2023-04-29T20:47:22;4.57;;;2.95;;
47113;SDS011;32867;51.556;6.832;2023-04-29T20:52:23;5.10;;;2.75;;
47113;SDS011;32867;51.556;6.832;2023-04-29T20:57:26;5.25;;;3.10;;
47113;SDS011;32867;51.556;6.832;2023-04-29T21:02:27;4.63;;;2.85;;
47113;SDS011;32867;51.556;6.832;2023-04-29T21:07:28;6.70;;;3.20;;
47113;SDS011;32867;51.556;6.832;2023-04-29T21:12:28;5.05;;;2.88;;
47113;SDS011;32867;51.556;6.832;2023-04-29T21:17:29;5.00;;;3.30;;
47113;SDS011;32867;51.556;6.832;2023-04-29T21:22:30;4.75;;;2.80;;
47113;SDS011;32867;51.556;6.832;2023-04-29T21:27:31;7.07;;;3.45;;
47113;SDS011;32867;51.556;6.832;2023-04-29T21:32:31;5.65;;;3.15;;
47113;SDS011;32867;51.556;6.832;2023-04-29T21:37:32;4.38;;;3.15;;
47113;SDS011;32867;51.556;6.832;2023-04-29T21:42:33;5.93;;;3.60;;
47113;SDS011;32867;51.556;6.832;2023-04-29T21:47:34;5.95;;;3.92;;
47113;SDS011;32867;51.556;6.832;2023-04-29T21:52:35;6.03;;;4.20;;
47113;SDS011;32867;51.556;6.832;2023-04-29T21:57:36;8.07;;;4.97;;
47113;SDS011;32867;51.556;6.832;2023-04-29T22:02:36;5.78;;;3.97;;
47113;SDS011;32867;51.556;6.832;2023-04-29T22:07:41;6.55;;;4.40;;
47113;SDS011;32867;51.556;6.832;2023-04-29T22:12:42;6.28;;;4.47;;
47113;SDS011;32867;51.556;6.832;2023-04-29T22:17:42;8.05;;;4.63;;
47113;SDS011;32867;51.556;6.832;2023-04-29T22:22:43;6.18;;;4.55;;
47113;SDS011;32867;51.556;6.832;2023-04-29T22:27:44;8.38;;;4.70;;
47113;SDS011;32867;51.556;6.832;2023-04-29T22:32:45;6.80;;;4.75;;
47113;SDS011;32867;51.556;6.832;2023-04-29T22:37:46;7.63;;;5.38;;
47113;SDS011;32867;51.556;6.832;2023-04-29T22:42:47;6.82;;;4.90;;
47113;SDS011;32867;51.556;6.832;2023-04-29T22:47:48;7.25;;;5.57;;
47113;SDS011;32867;51.556;6.832;2023-04-29T22:52:49;6.90;;;5.15;;
47113;SDS011;32867;51.556;6.832;2023-04-29T22:57:50;7.95;;;5.50;;
47113;SDS011;32867;51.556;6.832;2023-04-29T23:02:51;8.05;;;5.10;;
47113;SDS011;32867;51.556;6.832;2023-04-29T23:07:51;7.90;;;5.65;;
47113;SDS011;32867;51.556;6.832;2023-04-29T23:12:52;7.13;;;5.32;;
47113;SDS011;32867;51.556;6.832;2023-04-29T23:17:53;8.73;;;5.88;;
47113;SDS011;32867;51.556;6.832;2023-04-29T23:22:54;7.65;;;5.20;;
47113;SDS011;32867;51.556;6.832;2023-04-29T23:27:55;9.15;;;6.00;;
47113;SDS011;32867;51.556;6.832;2023-04-29T23:32:55;7.65;;;5.22;;
47113;SDS011;32867;51.556;6.832;2023-04-29T23:37:56;8.00;;;5.60;;
47113;SDS011;32867;51.556;6.832;2023-04-29T23:42:57;7.35;;;5.30;;
47113;SDS011;32867;51.556;6.832;2023-04-29T23:47:58;7.43;;;5.28;;
47113;SDS011;32867;51.556;6.832;2023-04-29T23:52:58;7.95;;;5.63;;
47113;SDS011;32867;51.556;6.832;2023-04-29T23:57:59;7.05;;;5.22;;
